createdAt,value
2022-11-30T00:01:23.751Z,2.56
2022-11-30T00:03:57.951Z,2.38
2022-11-30T00:06:26.025Z,2.57
2022-11-30T00:08:55.843Z,2.37
2022-11-30T00:11:25.878Z,2.72
2022-11-30T00:13:54.114Z,2.59
2022-11-30T00:16:22.137Z,2.60
2022-11-30T00:18:50.538Z,2.63
2022-11-30T00:21:18.723Z,2.65
2022-11-30T00:23:48.152Z,2.70
2022-11-30T00:26:18.284Z,2.79
2022-11-30T00:28:48.485Z,2.70
2022-11-30T00:31:18.549Z,2.73
2022-11-30T00:33:47.163Z,2.77
2022-11-30T00:36:17.806Z,2.73
2022-11-30T00:38:46.424Z,2.67
2022-11-30T00:41:15.143Z,2.81
2022-11-30T00:43:43.191Z,2.83
2022-11-30T00:46:11.419Z,2.73
2022-11-30T00:48:40.435Z,2.79
2022-11-30T00:51:10.781Z,2.74
2022-11-30T00:53:40.033Z,2.56
2022-11-30T00:56:08.996Z,2.95
2022-11-30T00:58:36.895Z,2.81
2022-11-30T01:01:04.957Z,2.77
2022-11-30T01:03:33.704Z,2.81
2022-11-30T01:06:10.905Z,2.87
2022-11-30T01:08:38.825Z,2.91
2022-11-30T01:11:26.481Z,2.79
2022-11-30T01:13:55.804Z,3.02
2022-11-30T01:16:30.502Z,2.71
2022-11-30T01:18:58.531Z,2.85
2022-11-30T01:21:28.709Z,2.96
2022-11-30T01:23:56.822Z,2.94
2022-11-30T01:26:24.930Z,2.74
2022-11-30T01:28:54.578Z,2.86
2022-11-30T01:31:24.254Z,2.92
2022-11-30T01:33:54.165Z,2.83
2022-11-30T01:36:28.506Z,3.03
2022-11-30T01:38:57.972Z,2.83
2022-11-30T01:41:32.354Z,2.71
2022-11-30T01:44:06.360Z,2.84
2022-11-30T01:46:49.754Z,2.72
2022-11-30T01:49:25.486Z,2.62
2022-11-30T01:52:03.448Z,2.66
2022-11-30T01:54:47.696Z,2.56
2022-11-30T01:57:22.912Z,2.56
2022-11-30T01:59:53.538Z,2.52
2022-11-30T02:02:31.040Z,2.45
2022-11-30T02:04:59.193Z,2.44
2022-11-30T02:07:27.611Z,2.52
2022-11-30T02:09:55.619Z,2.34
2022-11-30T02:12:40.718Z,2.21
2022-11-30T02:15:12.651Z,2.46
2022-11-30T02:18:13.799Z,2.39
2022-11-30T02:20:53.536Z,2.45
2022-11-30T02:23:45.680Z,2.50
2022-11-30T02:26:22.292Z,2.49
2022-11-30T02:28:59.349Z,2.38
2022-11-30T02:31:52.329Z,2.35
2022-11-30T02:34:23.872Z,2.21
2022-11-30T02:36:54.352Z,2.30
2022-11-30T02:39:23.456Z,2.25
2022-11-30T02:41:51.381Z,2.33
2022-11-30T02:44:21.973Z,2.23
2022-11-30T02:46:53.407Z,2.49
2022-11-30T02:49:39.897Z,2.42
2022-11-30T02:52:10.686Z,2.34
2022-11-30T02:54:38.727Z,2.28
2022-11-30T02:57:07.005Z,2.35
2022-11-30T02:59:35.445Z,2.51
2022-11-30T03:02:03.418Z,2.29
2022-11-30T03:04:31.318Z,2.24
2022-11-30T03:06:59.307Z,2.39
2022-11-30T03:09:27.438Z,2.25
2022-11-30T03:11:55.351Z,2.35
2022-11-30T03:14:23.255Z,2.26
2022-11-30T03:16:51.158Z,2.35
2022-11-30T03:19:19.065Z,2.36
2022-11-30T03:21:47.019Z,2.27
2022-11-30T03:24:14.960Z,2.27
2022-11-30T03:26:43.028Z,2.27
2022-11-30T03:29:10.893Z,2.53
2022-11-30T03:31:38.846Z,2.38
2022-11-30T03:34:06.708Z,2.36
2022-11-30T03:36:34.611Z,2.34
2022-11-30T03:39:02.747Z,2.49
2022-11-30T03:41:30.838Z,2.34
2022-11-30T03:43:58.709Z,2.44
2022-11-30T03:46:27.622Z,2.37
2022-11-30T03:48:55.630Z,2.33
2022-11-30T03:51:23.665Z,2.33
2022-11-30T03:53:51.557Z,2.42
2022-11-30T03:56:20.514Z,2.45
2022-11-30T03:58:48.424Z,2.45
2022-11-30T04:01:19.360Z,2.54
2022-11-30T04:03:49.420Z,2.53
2022-11-30T04:06:17.940Z,2.79
2022-11-30T04:08:46.067Z,2.68
2022-11-30T04:11:14.210Z,2.58
2022-11-30T04:13:42.733Z,2.69
2022-11-30T04:16:10.657Z,2.57
2022-11-30T04:18:39.527Z,2.62
2022-11-30T04:21:08.398Z,2.73
2022-11-30T04:23:39.090Z,2.75
2022-11-30T04:26:11.568Z,2.81
2022-11-30T04:28:39.800Z,2.77
2022-11-30T04:31:08.703Z,2.67
2022-11-30T04:33:36.997Z,2.78
2022-11-30T04:36:06.886Z,2.74
2022-11-30T04:38:36.705Z,2.63
2022-11-30T04:41:08.921Z,2.65
2022-11-30T04:43:37.214Z,2.75
2022-11-30T04:46:06.225Z,2.77
2022-11-30T04:48:34.522Z,2.60
2022-11-30T04:51:08.081Z,2.55
2022-11-30T04:53:37.613Z,2.76
2022-11-30T04:56:07.483Z,2.73
2022-11-30T04:58:36.293Z,2.78
2022-11-30T05:01:04.376Z,2.69
2022-11-30T05:03:32.266Z,2.81
2022-11-30T05:06:00.186Z,2.74
2022-11-30T05:08:28.544Z,2.87
2022-11-30T05:10:56.677Z,2.77
2022-11-30T05:13:26.405Z,2.67
2022-11-30T05:15:54.428Z,2.89
2022-11-30T05:18:22.926Z,2.74
2022-11-30T05:20:52.886Z,2.81
2022-11-30T05:23:22.517Z,2.80
2022-11-30T05:25:50.635Z,2.82
2022-11-30T05:28:19.095Z,2.83
2022-11-30T05:30:47.234Z,2.89
2022-11-30T05:33:15.188Z,3.02
2022-11-30T05:35:43.433Z,3.03
2022-11-30T05:38:11.415Z,2.85
2022-11-30T05:40:39.345Z,2.92
2022-11-30T05:43:07.245Z,2.84
2022-11-30T05:45:35.160Z,2.81
2022-11-30T05:48:03.047Z,3.06
2022-11-30T05:50:31.372Z,2.96
2022-11-30T05:53:00.876Z,3.04
2022-11-30T05:55:29.889Z,2.70
2022-11-30T05:57:58.070Z,2.89
2022-11-30T06:00:26.004Z,2.97
2022-11-30T06:02:58.372Z,2.87
2022-11-30T06:05:26.960Z,2.85
2022-11-30T06:07:55.644Z,2.70
2022-11-30T06:10:25.817Z,2.98
2022-11-30T06:12:53.793Z,2.98
2022-11-30T06:15:22.592Z,3.06
2022-11-30T06:17:50.529Z,3.15
2022-11-30T06:20:18.419Z,3.03
2022-11-30T06:22:46.973Z,2.90
2022-11-30T06:25:15.165Z,3.08
2022-11-30T06:27:43.686Z,3.02
2022-11-30T06:30:12.492Z,3.15
2022-11-30T06:32:40.518Z,2.97
2022-11-30T06:35:08.666Z,3.26
2022-11-30T06:37:36.571Z,3.20
2022-11-30T06:40:07.239Z,3.13
2022-11-30T06:42:37.106Z,3.11
2022-11-30T06:45:06.901Z,3.06
2022-11-30T06:47:35.358Z,3.08
2022-11-30T06:50:03.936Z,3.12
2022-11-30T06:52:32.369Z,3.14
2022-11-30T06:55:00.680Z,3.13
2022-11-30T06:57:29.819Z,3.09
2022-11-30T06:59:58.069Z,3.15
2022-11-30T07:02:26.106Z,2.99
2022-11-30T07:04:54.057Z,2.88
2022-11-30T07:07:22.290Z,3.07
2022-11-30T07:09:51.105Z,3.06
2022-11-30T07:12:19.532Z,3.03
2022-11-30T07:14:48.006Z,3.19
2022-11-30T07:17:16.585Z,3.19
2022-11-30T07:19:44.704Z,3.26
2022-11-30T07:22:14.036Z,3.08
2022-11-30T07:25:00.444Z,3.21
2022-11-30T07:27:28.686Z,2.97
2022-11-30T07:29:56.850Z,3.10
2022-11-30T07:32:25.091Z,3.14
2022-11-30T07:34:53.118Z,3.26
2022-11-30T07:37:21.179Z,3.31
2022-11-30T07:39:49.685Z,3.43
2022-11-30T07:42:17.765Z,3.37
2022-11-30T07:44:45.869Z,3.34
2022-11-30T07:47:14.173Z,3.27
2022-11-30T07:49:42.097Z,3.31
2022-11-30T07:52:09.961Z,3.20
2022-11-30T07:54:38.001Z,3.31
2022-11-30T07:57:06.543Z,3.37
2022-11-30T07:59:34.526Z,3.29
2022-11-30T08:02:02.624Z,3.22
2022-11-30T08:04:31.132Z,3.39
2022-11-30T08:06:59.369Z,3.24
2022-11-30T08:09:27.297Z,3.33
2022-11-30T08:11:55.159Z,3.15
2022-11-30T08:14:23.365Z,3.20
2022-11-30T08:16:51.825Z,3.26
2022-11-30T08:19:20.607Z,3.32
2022-11-30T08:21:49.803Z,3.33
2022-11-30T08:24:17.932Z,3.35
2022-11-30T08:26:45.984Z,3.33
2022-11-30T08:29:13.913Z,3.25
2022-11-30T08:31:41.840Z,3.35
2022-11-30T08:34:11.880Z,3.29
2022-11-30T08:36:41.081Z,3.40
2022-11-30T08:39:12.430Z,3.08
2022-11-30T08:41:40.465Z,3.39
2022-11-30T08:44:08.733Z,3.31
2022-11-30T08:46:53.450Z,3.14
2022-11-30T08:52:18.955Z,3.43
2022-11-30T08:54:48.563Z,3.25
2022-11-30T08:57:18.792Z,3.45
2022-11-30T08:59:47.616Z,3.50
2022-11-30T09:02:17.922Z,3.40
2022-11-30T09:04:49.211Z,3.37
2022-11-30T09:07:17.738Z,3.14
2022-11-30T09:09:45.963Z,3.36
2022-11-30T09:12:13.872Z,3.37
2022-11-30T09:14:42.138Z,3.44
2022-11-30T09:17:10.002Z,3.33
2022-11-30T09:19:38.214Z,3.56
2022-11-30T09:22:06.458Z,3.32
2022-11-30T09:24:34.510Z,3.40
2022-11-30T09:27:02.566Z,3.45
2022-11-30T09:29:30.593Z,3.36
2022-11-30T09:31:58.721Z,3.47
2022-11-30T09:34:26.613Z,3.43
2022-11-30T09:36:54.829Z,3.31
2022-11-30T09:39:23.164Z,3.23
2022-11-30T09:42:00.299Z,3.38
2022-11-30T09:44:56.989Z,3.30
2022-11-30T09:47:46.091Z,3.28
2022-11-30T09:50:16.710Z,3.51
2022-11-30T09:52:52.489Z,3.54
2022-11-30T09:55:49.555Z,3.60
2022-11-30T09:58:39.775Z,3.67
2022-11-30T10:01:17.560Z,3.59
2022-11-30T10:03:46.565Z,3.65
2022-11-30T10:06:37.628Z,3.58
2022-11-30T10:09:17.832Z,3.57
2022-11-30T10:11:52.447Z,3.44
2022-11-30T10:14:38.132Z,3.62
2022-11-30T10:17:25.771Z,3.51
2022-11-30T10:19:59.961Z,3.70
2022-11-30T10:22:46.522Z,3.53
2022-11-30T10:25:33.392Z,3.50
2022-11-30T10:28:38.650Z,3.72
2022-11-30T10:31:02.201Z,3.40
2022-11-30T10:33:38.819Z,3.66
2022-11-30T10:36:14.068Z,3.65
2022-11-30T10:38:50.100Z,3.76
2022-11-30T10:41:28.884Z,3.60
2022-11-30T10:44:16.189Z,3.84
2022-11-30T10:47:05.637Z,3.84
2022-11-30T10:49:37.619Z,3.80
2022-11-30T10:52:09.102Z,3.91
2022-11-30T10:54:37.364Z,3.84
2022-11-30T10:57:07.531Z,3.67
2022-11-30T10:59:54.530Z,3.86
2022-11-30T11:02:39.662Z,3.92
2022-11-30T11:05:19.659Z,3.89
2022-11-30T11:08:18.994Z,3.99
2022-11-30T11:10:52.237Z,4.03
2022-11-30T11:13:35.406Z,3.95
2022-11-30T11:16:05.106Z,3.94
2022-11-30T11:18:35.015Z,3.85
2022-11-30T11:21:07.396Z,3.91
2022-11-30T11:23:35.414Z,3.93
2022-11-30T11:26:04.489Z,4.01
2022-11-30T11:28:35.573Z,4.06
2022-11-30T11:31:22.942Z,4.21
2022-11-30T11:33:54.158Z,4.06
2022-11-30T11:36:32.059Z,4.39
2022-11-30T11:39:01.366Z,4.05
2022-11-30T11:41:35.269Z,4.15
2022-11-30T11:44:08.899Z,4.14
2022-11-30T11:47:03.502Z,4.14
2022-11-30T11:49:36.723Z,4.10
2022-11-30T11:52:13.655Z,4.20
2022-11-30T11:54:51.632Z,4.29
2022-11-30T11:57:25.187Z,4.21
2022-11-30T12:00:15.893Z,4.28
2022-11-30T12:03:43.071Z,4.30
2022-11-30T12:06:15.024Z,4.04
2022-11-30T12:08:55.136Z,4.21
2022-11-30T12:11:37.199Z,4.24
2022-11-30T12:14:13.049Z,4.37
2022-11-30T12:16:40.967Z,4.18
2022-11-30T12:19:16.602Z,4.42
2022-11-30T12:21:53.743Z,4.45
2022-11-30T12:24:21.619Z,4.43
2022-11-30T12:27:05.658Z,4.25
2022-11-30T12:30:12.585Z,4.24
2022-11-30T12:33:07.467Z,4.36
2022-11-30T12:35:59.335Z,4.47
2022-11-30T12:38:48.767Z,4.57
2022-11-30T12:41:40.909Z,4.59
2022-11-30T12:44:30.206Z,4.65
2022-11-30T12:47:23.184Z,4.69
2022-11-30T12:49:54.872Z,4.52
2022-11-30T12:52:29.758Z,4.72
2022-11-30T12:55:00.536Z,4.71
2022-11-30T12:57:38.538Z,4.74
2022-11-30T13:00:21.572Z,4.67
2022-11-30T13:03:07.867Z,4.69
2022-11-30T13:05:41.299Z,4.50
2022-11-30T13:08:43.270Z,4.36
2022-11-30T13:11:17.587Z,4.64
2022-11-30T13:13:54.806Z,4.57
2022-11-30T13:16:24.953Z,4.53
2022-11-30T13:18:59.679Z,4.79
2022-11-30T13:21:40.588Z,4.75
2022-11-30T13:24:16.344Z,4.72
2022-11-30T13:26:46.198Z,4.73
2022-11-30T13:29:51.813Z,4.82
2022-11-30T13:32:56.299Z,4.80
2022-11-30T13:35:29.672Z,4.79
2022-11-30T13:38:36.219Z,4.85
2022-11-30T13:41:07.969Z,4.92
2022-11-30T13:43:53.757Z,4.88
2022-11-30T13:46:25.557Z,4.93
2022-11-30T13:49:23.984Z,4.74
2022-11-30T13:52:13.599Z,4.50
2022-11-30T13:54:50.794Z,4.80
2022-11-30T13:57:38.932Z,4.62
2022-11-30T14:00:36.374Z,4.92
2022-11-30T14:03:22.303Z,4.79
2022-11-30T14:05:54.189Z,4.86
2022-11-30T14:08:22.046Z,4.92
2022-11-30T14:10:55.591Z,4.77
2022-11-30T14:13:29.765Z,4.82
2022-11-30T14:16:00.741Z,4.85
2022-11-30T14:18:40.402Z,4.80
2022-11-30T14:21:22.201Z,4.75
2022-11-30T14:24:00.045Z,4.80
2022-11-30T14:26:35.564Z,4.75
2022-11-30T14:29:12.580Z,4.75
2022-11-30T14:32:08.571Z,4.67
2022-11-30T14:34:41.723Z,4.64
2022-11-30T14:37:23.455Z,4.66
2022-11-30T14:39:56.673Z,4.62
2022-11-30T14:42:27.534Z,4.64
2022-11-30T14:44:56.345Z,4.62
2022-11-30T14:47:29.901Z,4.57
2022-11-30T14:50:02.384Z,4.31
2022-11-30T14:52:50.857Z,4.51
2022-11-30T14:55:52.971Z,4.31
2022-11-30T14:58:44.973Z,4.37
2022-11-30T15:01:23.667Z,4.37
2022-11-30T15:03:54.721Z,4.38
2022-11-30T15:06:29.794Z,4.34
2022-11-30T15:09:01.224Z,4.34
2022-11-30T15:11:29.465Z,4.42
2022-11-30T15:14:07.962Z,4.34
2022-11-30T15:16:36.198Z,4.34
2022-11-30T15:19:36.473Z,4.28
2022-11-30T15:22:04.364Z,4.44
2022-11-30T15:24:32.296Z,4.38
2022-11-30T15:27:12.729Z,4.43
2022-11-30T15:29:47.894Z,4.38
2022-11-30T15:32:20.343Z,4.31
2022-11-30T15:34:56.092Z,4.25
2022-11-30T15:37:50.687Z,4.23
2022-11-30T15:40:38.833Z,4.32
2022-11-30T15:43:23.972Z,4.30
2022-11-30T15:45:57.838Z,4.30
2022-11-30T15:48:35.220Z,4.22
2022-11-30T15:51:03.203Z,4.34
2022-11-30T15:53:48.377Z,4.42
2022-11-30T15:56:27.719Z,4.37
2022-11-30T15:59:12.062Z,4.27
2022-11-30T16:02:14.620Z,4.30
2022-11-30T16:04:57.829Z,4.37
2022-11-30T16:07:29.814Z,4.24
2022-11-30T16:10:15.885Z,4.19
2022-11-30T16:12:45.258Z,4.20
2022-11-30T16:15:48.095Z,4.20
2022-11-30T16:18:28.817Z,4.04
2022-11-30T16:20:59.778Z,4.07
2022-11-30T16:23:28.342Z,4.10
2022-11-30T16:25:56.469Z,3.99
2022-11-30T16:28:24.840Z,4.06
2022-11-30T16:30:59.399Z,4.04
2022-11-30T16:33:28.129Z,3.85
2022-11-30T16:36:12.082Z,4.02
2022-11-30T16:38:40.440Z,4.17
2022-11-30T16:41:18.527Z,4.09
2022-11-30T16:43:47.902Z,4.11
2022-11-30T16:46:19.611Z,4.00
2022-11-30T16:48:47.909Z,4.06
2022-11-30T16:51:21.672Z,3.99
2022-11-30T16:53:49.784Z,3.90
2022-11-30T16:56:18.436Z,4.08
2022-11-30T16:58:46.891Z,4.06
2022-11-30T17:01:36.506Z,3.98
2022-11-30T17:04:15.115Z,3.92
2022-11-30T17:06:45.841Z,3.99
2022-11-30T17:09:19.902Z,3.88
2022-11-30T17:11:50.636Z,3.95
2022-11-30T17:14:20.042Z,4.01
2022-11-30T17:16:48.039Z,3.96
2022-11-30T17:19:16.038Z,4.03
2022-11-30T17:21:44.775Z,4.05
2022-11-30T17:24:13.507Z,3.96
2022-11-30T17:26:41.461Z,3.92
2022-11-30T17:29:09.712Z,3.98
2022-11-30T17:31:37.624Z,3.90
2022-11-30T17:34:06.857Z,3.94
2022-11-30T17:36:34.825Z,3.94
2022-11-30T17:39:08.867Z,3.99
2022-11-30T17:41:36.917Z,3.97
2022-11-30T17:44:04.784Z,3.95
2022-11-30T17:46:32.879Z,3.96
2022-11-30T17:49:01.803Z,3.95
2022-11-30T17:51:30.661Z,4.02
2022-11-30T17:53:58.950Z,4.03
2022-11-30T17:56:26.854Z,4.07
2022-11-30T17:58:54.733Z,4.11
2022-11-30T18:01:25.424Z,4.13
2022-11-30T18:03:54.965Z,4.09
2022-11-30T18:06:23.133Z,4.08
2022-11-30T18:08:51.074Z,4.04
2022-11-30T18:11:21.434Z,4.18
2022-11-30T18:13:53.439Z,4.13
2022-11-30T18:16:26.859Z,4.10
2022-11-30T18:18:57.224Z,4.13
2022-11-30T18:21:27.850Z,4.20
2022-11-30T18:23:57.624Z,4.12
2022-11-30T18:26:26.986Z,4.07
2022-11-30T18:28:57.526Z,4.02
2022-11-30T18:31:27.879Z,4.05
2022-11-30T18:33:57.757Z,4.08
2022-11-30T18:36:25.991Z,4.14
2022-11-30T18:38:54.376Z,4.04
2022-11-30T18:41:22.440Z,4.09
2022-11-30T18:43:50.370Z,4.15
2022-11-30T18:46:18.361Z,4.01
2022-11-30T18:48:50.367Z,4.04
2022-11-30T18:51:24.644Z,4.13
2022-11-30T18:53:58.469Z,4.15
2022-11-30T18:56:29.100Z,4.18
2022-11-30T18:58:59.317Z,4.12
2022-11-30T19:01:28.645Z,4.04
2022-11-30T19:04:02.626Z,4.17
2022-11-30T19:06:33.197Z,4.14
2022-11-30T19:09:10.432Z,4.08
2022-11-30T19:11:41.308Z,4.15
2022-11-30T19:14:13.534Z,4.19
2022-11-30T19:16:41.574Z,4.29
2022-11-30T19:19:13.881Z,4.28
2022-11-30T19:21:47.658Z,4.37
2022-11-30T19:24:16.528Z,4.34
2022-11-30T19:26:44.616Z,4.31
2022-11-30T19:29:12.520Z,4.32
2022-11-30T19:31:40.770Z,4.32
2022-11-30T19:34:12.611Z,4.25
2022-11-30T19:36:41.863Z,4.34
2022-11-30T19:39:10.005Z,4.33
2022-11-30T19:41:38.486Z,4.37
2022-11-30T19:44:12.236Z,4.35
2022-11-30T19:46:41.212Z,4.43
2022-11-30T19:49:10.110Z,4.47
2022-11-30T19:51:38.065Z,4.48
2022-11-30T19:54:06.018Z,4.46
2022-11-30T19:56:38.937Z,4.46
2022-11-30T19:59:06.900Z,4.45
2022-11-30T20:01:35.418Z,4.45
2022-11-30T20:04:03.834Z,4.39
2022-11-30T20:06:34.496Z,4.36
2022-11-30T20:09:04.419Z,4.35
2022-11-30T20:11:32.973Z,4.40
2022-11-30T20:14:00.897Z,4.47
2022-11-30T20:16:29.711Z,4.49
2022-11-30T20:19:01.980Z,4.49
2022-11-30T20:21:33.094Z,4.47
2022-11-30T20:24:05.337Z,4.44
2022-11-30T20:26:39.878Z,4.39
2022-11-30T20:29:12.750Z,4.43
2022-11-30T20:31:42.727Z,4.55
2022-11-30T20:34:10.935Z,4.55
2022-11-30T20:36:39.002Z,4.61
2022-11-30T20:39:07.506Z,4.63
2022-11-30T20:41:35.508Z,4.62
2022-11-30T20:44:03.541Z,4.56
2022-11-30T20:46:35.144Z,4.60
2022-11-30T20:49:09.368Z,4.67
2022-11-30T20:51:37.274Z,4.54
2022-11-30T20:54:09.221Z,4.61
2022-11-30T20:56:38.677Z,4.52
2022-11-30T20:59:09.607Z,4.55
2022-11-30T21:01:37.712Z,4.53
2022-11-30T21:04:05.640Z,4.61
2022-11-30T21:06:34.143Z,4.52
2022-11-30T21:09:03.408Z,4.37
2022-11-30T21:11:31.513Z,4.45
2022-11-30T21:13:59.657Z,4.40
2022-11-30T21:16:29.605Z,4.35
2022-11-30T21:18:59.571Z,4.31
2022-11-30T21:21:33.257Z,4.22
2022-11-30T21:24:07.337Z,4.26
2022-11-30T21:26:43.203Z,4.30
2022-11-30T21:29:13.996Z,4.40
2022-11-30T21:31:43.168Z,4.40
2022-11-30T21:34:11.251Z,4.49
2022-11-30T21:36:39.366Z,4.27
2022-11-30T21:39:08.304Z,4.33
2022-11-30T21:41:38.482Z,4.38
2022-11-30T21:44:09.520Z,4.45
2022-11-30T21:46:37.589Z,4.54
2022-11-30T21:49:06.109Z,4.61
2022-11-30T21:51:33.973Z,4.55
2022-11-30T21:54:05.620Z,4.68
2022-11-30T21:56:36.483Z,4.71
2022-11-30T21:59:06.580Z,4.81
2022-11-30T22:01:39.861Z,4.79
2022-11-30T22:04:10.115Z,4.75
2022-11-30T22:06:39.670Z,4.84
2022-11-30T22:09:13.712Z,4.83
2022-11-30T22:11:43.925Z,4.86
2022-11-30T22:14:15.637Z,4.94
2022-11-30T22:16:43.866Z,4.92
2022-11-30T22:19:11.774Z,4.84
2022-11-30T22:21:41.346Z,4.80
2022-11-30T22:24:13.406Z,4.85
2022-11-30T22:26:45.428Z,4.89
2022-11-30T22:29:13.382Z,4.85
2022-11-30T22:31:43.359Z,4.79
2022-11-30T22:34:12.512Z,4.80
2022-11-30T22:36:41.999Z,4.77
2022-11-30T22:39:19.572Z,4.79
2022-11-30T22:41:54.663Z,4.66
2022-11-30T22:44:24.385Z,4.71
2022-11-30T22:46:52.344Z,4.71
2022-11-30T22:49:21.816Z,4.73
2022-11-30T22:51:50.716Z,4.70
2022-11-30T22:54:19.712Z,4.72
2022-11-30T22:56:47.827Z,4.68
2022-11-30T22:59:16.173Z,4.73
2022-11-30T23:01:46.629Z,4.76
2022-11-30T23:04:18.036Z,4.70
2022-11-30T23:06:48.351Z,4.67
2022-11-30T23:09:22.399Z,4.76
2022-11-30T23:11:50.822Z,4.67
2022-11-30T23:14:19.298Z,4.63
2022-11-30T23:16:47.350Z,4.65
2022-11-30T23:19:15.821Z,4.58
2022-11-30T23:21:48.605Z,4.52
2022-11-30T23:24:20.696Z,4.49
2022-11-30T23:26:49.273Z,4.48
2022-11-30T23:29:17.834Z,4.60
2022-11-30T23:31:47.284Z,4.51
2022-11-30T23:34:19.107Z,4.06
2022-11-30T23:36:48.665Z,3.99
2022-11-30T23:39:18.857Z,3.94
2022-11-30T23:41:47.529Z,3.89
2022-11-30T23:44:15.649Z,3.82
2022-11-30T23:46:43.697Z,3.67
2022-11-30T23:49:13.932Z,3.63
2022-11-30T23:51:42.928Z,3.71
2022-11-30T23:54:10.977Z,3.63
2022-11-30T23:56:39.461Z,3.61
2022-11-30T23:59:07.370Z,3.43
